Time;durP1;ratioP1;P1;durP2;ratioP2;P2;SDS_P1;SDS_P2;PMS_P1;PMS_P2;Temp;Humidity;BMP_temperature;BMP_pressure;BME280_temperature;BME280_humidity;BME280_pressure;Samples;Min_cycle;Max_cycle;Signal;HPM_P1;HPM_P2
2021/07/23 00:01:30;;;;;;;;;15.50;13.00;;;;;32.97;28.91;100944.00;144253;612;131020;-67
2021/07/23 00:04:22;;;;;;;;;20.25;16.25;;;;;32.81;28.59;100945.84;144226;581;131017;-66
2021/07/23 00:07:14;;;;;;;;;10.25;10.25;;;;;32.53;29.27;100942.81;144255;569;131020;-67
2021/07/23 00:10:07;;;;;;;;;12.50;12.50;;;;;32.61;29.14;100942.75;144223;580;133913;-66
2021/07/23 00:12:59;;;;;;;;;16.00;15.25;;;;;32.76;29.24;100939.28;144251;617;132008;-67
2021/07/23 00:15:51;;;;;;;;;11.25;10.75;;;;;32.94;28.73;100930.78;144228;711;131016;-67
2021/07/23 00:18:43;;;;;;;;;14.00;12.75;;;;;33.00;28.97;100938.19;144239;583;132008;-65
2021/07/23 00:21:36;;;;;;;;;11.75;11.75;;;;;32.84;28.50;100939.19;144226;586;131912;-66
2021/07/23 00:24:29;;;;;;;;;12.50;12.50;;;;;32.92;28.29;100932.81;144252;571;131020;-66
2021/07/23 00:27:22;;;;;;;;;12.00;12.00;;;;;32.93;28.12;100934.50;144230;575;131029;-67
2021/07/23 00:30:15;;;;;;;;;10.50;10.50;;;;;32.99;27.89;100936.50;144260;601;131012;-66
2021/07/23 00:33:07;;;;;;;;;10.75;10.75;;;;;32.99;27.98;100934.63;144227;590;131017;-65
2021/07/23 00:35:59;;;;;;;;;15.25;14.25;;;;;33.02;28.07;100933.41;144252;665;131020;-65
2021/07/23 00:38:51;;;;;;;;;13.50;12.00;;;;;33.14;27.81;100937.34;144227;665;131016;-66
2021/07/23 00:41:44;;;;;;;;;12.00;11.25;;;;;33.24;27.43;100934.38;144256;569;131021;-66
2021/07/23 00:44:36;;;;;;;;;13.00;12.50;;;;;33.23;27.72;100936.25;144221;563;132010;-66
2021/07/23 00:47:28;;;;;;;;;10.25;10.25;;;;;33.03;27.58;100932.37;144248;583;131021;-67
2021/07/23 00:50:21;;;;;;;;;13.50;11.75;;;;;32.90;27.64;100933.00;144224;621;132012;-65
2021/07/23 00:53:15;;;;;;;;;13.00;12.00;;;;;32.96;27.79;100929.56;144255;612;132028;-66
2021/07/23 00:56:07;;;;;;;;;12.75;10.50;;;;;33.25;27.81;100927.91;144223;655;132010;-67
2021/07/23 00:59:00;;;;;;;;;14.50;13.50;;;;;33.22;27.62;100931.00;144259;578;131020;-66
2021/07/23 01:01:52;;;;;;;;;13.00;11.75;;;;;33.17;27.60;100930.69;144220;726;132010;-67
2021/07/23 01:04:45;;;;;;;;;12.50;12.50;;;;;32.87;28.25;100927.94;144249;632;132012;-67
2021/07/23 01:07:39;;;;;;;;;13.50;10.50;;;;;33.04;28.35;100931.38;144225;584;132010;-68
2021/07/23 01:10:31;;;;;;;;;11.75;11.75;;;;;33.20;27.79;100933.91;144246;623;132008;-67
2021/07/23 01:13:23;;;;;;;;;14.00;12.75;;;;;33.15;27.92;100928.16;144224;595;131912;-68
2021/07/23 01:16:16;;;;;;;;;13.00;12.75;;;;;33.23;28.26;100933.53;144240;592;132008;-65
2021/07/23 01:19:10;;;;;;;;;11.00;11.00;;;;;33.27;28.06;100934.00;144219;621;132010;-69
2021/07/23 01:22:06;;;;;;;;;8.00;8.00;;;;;33.25;28.15;100925.19;144254;563;131020;-67
2021/07/23 01:25:00;;;;;;;;;14.75;13.50;;;;;33.29;28.12;100920.25;144235;604;131913;-65
2021/07/23 01:27:54;;;;;;;;;12.75;12.50;;;;;33.05;28.28;100916.72;144258;565;131020;-64
2021/07/23 01:30:46;;;;;;;;;15.75;14.50;;;;;32.87;28.50;100923.34;144215;564;132010;-67
2021/07/23 01:33:38;;;;;;;;;13.25;13.25;;;;;32.61;28.85;100925.59;144251;593;132009;-67
2021/07/23 01:36:31;;;;;;;;;12.50;12.50;;;;;32.42;29.19;100919.63;144229;581;131912;-67
2021/07/23 01:39:24;;;;;;;;;14.00;12.50;;;;;32.49;29.07;100920.63;144257;627;131021;-65
2021/07/23 01:42:16;;;;;;;;;20.75;20.00;;;;;32.58;29.30;100925.97;144225;585;132010;-65
2021/07/23 01:45:09;;;;;;;;;16.75;15.75;;;;;32.13;30.06;100918.47;144239;565;132008;-66
2021/07/23 01:48:01;;;;;;;;;14.00;14.00;;;;;31.95;30.24;100917.91;144215;629;132010;-67
2021/07/23 01:50:54;;;;;;;;;15.50;15.00;;;;;31.69;30.57;100916.34;144250;630;132012;-65
2021/07/23 01:53:46;;;;;;;;;9.75;9.75;;;;;31.60;30.65;100915.53;144216;617;132013;-63
2021/07/23 01:56:38;;;;;;;;;14.00;10.00;;;;;31.67;30.89;100916.53;144259;591;132012;-65
2021/07/23 01:59:31;;;;;;;;;16.25;12.50;;;;;31.64;30.90;100907.87;144228;607;131016;-65
2021/07/23 02:02:23;;;;;;;;;10.50;10.50;;;;;31.66;30.90;100908.56;144255;602;132008;-65
2021/07/23 02:05:16;;;;;;;;;13.25;12.50;;;;;31.61;31.38;100906.38;144232;637;132010;-64
2021/07/23 02:08:09;;;;;;;;;11.50;11.25;;;;;31.35;31.82;100909.34;144250;569;131020;-66
2021/07/23 02:11:01;;;;;;;;;12.75;12.75;;;;;31.26;31.71;100903.06;144228;589;132913;-66
2021/07/23 02:13:53;;;;;;;;;14.75;13.50;;;;;31.02;31.97;100898.56;144247;569;131020;-65
2021/07/23 02:16:45;;;;;;;;;11.50;11.50;;;;;30.99;32.38;100898.88;144222;622;132010;-68
2021/07/23 02:19:38;;;;;;;;;11.75;10.00;;;;;30.92;32.29;100903.31;144247;576;131020;-66
2021/07/23 02:22:30;;;;;;;;;10.75;10.75;;;;;30.88;32.20;100898.22;144217;577;132010;-66
2021/07/23 02:25:22;;;;;;;;;9.50;9.50;;;;;30.96;32.12;100894.69;144255;616;132008;-66
2021/07/23 02:28:14;;;;;;;;;15.00;13.50;;;;;31.12;31.97;100901.94;144229;646;132010;-65
2021/07/23 02:31:10;;;;;;;;;15.50;14.25;;;;;31.16;31.82;100900.56;144256;567;132008;-66
2021/07/23 02:34:02;;;;;;;;;12.25;12.25;;;;;30.84;32.53;100898.75;144230;596;131016;-66
2021/07/23 02:36:54;;;;;;;;;15.00;12.00;;;;;30.82;32.29;100901.63;144258;571;131020;-66
2021/07/23 02:39:47;;;;;;;;;12.50;12.50;;;;;30.96;32.03;100899.22;144226;658;131913;-65
2021/07/23 02:42:39;;;;;;;;;13.00;13.00;;;;;30.98;32.24;100897.22;144236;575;132012;-66
2021/07/23 02:45:31;;;;;;;;;11.00;10.75;;;;;31.05;32.12;100898.22;144224;586;132010;-66
2021/07/23 02:48:23;;;;;;;;;17.25;15.00;;;;;31.01;32.07;100902.28;144259;577;131020;-66
2021/07/23 02:51:16;;;;;;;;;14.00;13.00;;;;;30.95;32.12;100898.41;144229;600;131016;-66
2021/07/23 02:54:08;;;;;;;;;10.50;10.50;;;;;30.91;31.88;100897.06;144258;599;131012;-66
2021/07/23 02:57:00;;;;;;;;;15.75;14.00;;;;;30.93;32.10;100896.88;144232;614;131016;-67
2021/07/23 02:59:52;;;;;;;;;13.50;13.00;;;;;31.06;31.71;100902.63;144252;621;132008;-68
2021/07/23 03:02:45;;;;;;;;;11.50;10.75;;;;;30.89;31.92;100907.19;144227;598;132012;-66
2021/07/23 03:05:37;;;;;;;;;14.50;12.50;;;;;30.89;32.07;100910.78;144252;580;132008;-66
2021/07/23 03:08:32;;;;;;;;;13.50;12.25;;;;;30.81;31.97;100899.94;144221;582;132010;-68
2021/07/23 03:11:24;;;;;;;;;8.75;8.75;;;;;30.89;32.07;100910.78;144249;572;132016;-68
2021/07/23 03:14:16;;;;;;;;;10.00;10.00;;;;;30.92;32.55;100908.72;144227;565;132913;-67
2021/07/23 03:17:09;;;;;;;;;15.00;14.50;;;;;31.12;31.81;100920.06;144257;710;131021;-67
2021/07/23 03:20:02;;;;;;;;;12.25;12.25;;;;;31.16;31.60;100916.84;144220;671;132010;-67
2021/07/23 03:22:54;;;;;;;;;12.00;11.00;;;;;31.22;31.45;100916.16;144248;627;132012;-66
2021/07/23 03:25:47;;;;;;;;;13.25;13.00;;;;;31.28;31.46;100920.03;144223;640;132010;-67
2021/07/23 03:28:39;;;;;;;;;14.50;14.50;;;;;31.15;31.50;100933.28;144256;583;131020;-67
2021/07/23 03:31:31;;;;;;;;;13.75;11.25;;;;;30.74;31.89;100928.72;144228;675;132913;-68
2021/07/23 03:34:23;;;;;;;;;15.75;13.50;;;;;30.67;32.04;100925.88;144259;566;131020;-67
2021/07/23 03:37:15;;;;;;;;;15.25;15.25;;;;;30.85;32.09;100916.69;144214;586;132913;-66
2021/07/23 03:40:09;;;;;;;;;10.75;10.75;;;;;31.09;31.85;100920.44;144248;608;131021;-66
2021/07/23 03:43:02;;;;;;;;;16.00;16.00;;;;;31.16;31.42;100916.84;144226;571;131016;-67
2021/07/23 03:45:54;;;;;;;;;16.50;16.50;;;;;31.16;31.47;100922.25;144258;607;131024;-67
2021/07/23 03:48:46;;;;;;;;;14.50;14.50;;;;;30.91;31.85;100923.28;144225;586;131912;-66
2021/07/23 03:51:38;;;;;;;;;15.25;15.25;;;;;30.89;32.07;100926.16;144253;601;132008;-67
2021/07/23 03:54:30;;;;;;;;;18.50;16.00;;;;;30.93;32.11;100938.37;144223;603;132010;-66
2021/07/23 03:57:23;;;;;;;;;16.75;16.75;;;;;30.72;32.90;100947.03;144254;563;131042;-67
2021/07/23 04:00:17;;;;;;;;;14.50;14.50;;;;;30.79;32.97;100942.63;144224;564;132010;-67
2021/07/23 04:03:09;;;;;;;;;16.00;14.75;;;;;30.78;33.13;100946.34;144258;619;132008;-68
2021/07/23 04:06:01;;;;;;;;;22.00;18.50;;;;;31.06;33.02;100943.31;144217;612;132010;-68
2021/07/23 04:08:54;;;;;;;;;21.25;19.50;;;;;31.10;33.27;100939.22;144242;742;132008;-68
2021/07/23 04:11:49;;;;;;;;;20.50;18.75;;;;;31.36;32.85;100952.56;144220;594;132012;-67
2021/07/23 04:14:41;;;;;;;;;18.50;18.50;;;;;31.33;32.96;100949.31;144245;694;132012;-67
2021/07/23 04:17:33;;;;;;;;;23.00;20.25;;;;;31.38;33.10;100952.37;144225;563;132010;-69
2021/07/23 04:20:25;;;;;;;;;18.50;18.50;;;;;30.99;33.63;100953.94;144259;600;131020;-68
2021/07/23 04:23:17;;;;;;;;;18.25;16.75;;;;;31.01;33.71;100960.03;144218;569;132010;-67
2021/07/23 04:26:10;;;;;;;;;21.75;21.00;;;;;31.11;33.73;100961.75;144255;589;132012;-67
2021/07/23 04:29:02;;;;;;;;;17.25;17.00;;;;;30.75;34.22;100957.53;144232;569;131017;-68
2021/07/23 04:31:55;;;;;;;;;23.75;20.75;;;;;30.87;34.41;100967.00;144251;654;132008;-65
2021/07/23 04:34:47;;;;;;;;;23.50;21.75;;;;;30.70;34.54;100963.47;144229;613;131016;-67
2021/07/23 04:37:39;;;;;;;;;18.00;15.75;;;;;31.01;34.34;100970.03;144248;564;131021;-67
2021/07/23 04:40:32;;;;;;;;;18.00;17.50;;;;;31.29;34.04;100965.13;144222;577;132010;-66
2021/07/23 04:43:23;;;;;;;;;16.25;15.50;;;;;31.52;33.98;100980.63;144258;564;131020;-66
2021/07/23 04:46:16;;;;;;;;;20.75;18.00;;;;;31.76;34.59;100987.88;144224;600;132913;-65
2021/07/23 04:49:08;;;;;;;;;24.50;23.75;;;;;31.92;34.84;100988.81;144255;649;131020;-65
2021/07/23 04:52:00;;;;;;;;;24.50;23.75;;;;;31.75;35.66;100991.62;144215;573;132012;-67
2021/07/23 04:54:52;;;;;;;;;23.75;22.25;;;;;31.78;35.65;100980.44;144252;586;132008;-66
2021/07/23 04:57:48;;;;;;;;;30.25;25.75;;;;;32.12;36.41;100990.06;144228;585;132022;-65
2021/07/23 05:00:40;;;;;;;;;21.75;20.25;;;;;32.05;37.48;100984.53;144254;589;132008;-65
2021/07/23 05:03:40;;;;;;;;;20.00;19.75;;;;;32.02;38.32;100975.91;144215;566;132912;-68
2021/07/23 05:06:33;;;;;;;;;19.50;17.00;;;;;31.89;38.46;100973.75;144250;582;131021;-68
2021/07/23 05:09:25;;;;;;;;;22.25;22.25;;;;;31.75;38.48;100986.19;144226;577;131912;-67
2021/07/23 05:12:17;;;;;;;;;25.25;22.75;;;;;31.36;38.16;100976.13;144257;597;132008;-66
2021/07/23 05:15:11;;;;;;;;;21.75;16.75;;;;;31.59;37.23;100983.50;144219;576;132010;-66
2021/07/23 05:18:05;;;;;;;;;22.75;21.50;;;;;31.82;37.35;100981.75;144258;676;131020;-68
2021/07/23 05:20:57;;;;;;;;;23.25;20.75;;;;;31.99;37.68;100990.66;144218;751;132011;-67
2021/07/23 05:23:49;;;;;;;;;23.00;23.00;;;;;32.21;38.17;100980.06;144255;582;132008;-68
2021/07/23 05:26:42;;;;;;;;;25.25;21.75;;;;;32.37;37.64;100970.97;144222;644;132010;-67
2021/07/23 05:29:34;;;;;;;;;23.25;17.75;;;;;32.86;36.95;100973.31;144245;571;132012;-65
2021/07/23 05:32:27;;;;;;;;;22.75;20.50;;;;;33.25;36.53;100971.44;144227;579;131912;-66
2021/07/23 05:35:19;;;;;;;;;21.75;21.75;;;;;33.38;36.77;100970.78;144245;668;132008;-66
2021/07/23 05:38:18;;;;;;;;;21.50;20.25;;;;;33.65;35.76;100982.03;144225;630;131912;-66
2021/07/23 05:41:12;;;;;;;;;20.25;19.00;;;;;33.62;35.97;100982.44;144254;595;131020;-66
2021/07/23 05:44:04;;;;;;;;;18.50;18.50;;;;;33.76;35.83;100978.84;144222;569;132010;-65
2021/07/23 05:46:56;;;;;;;;;22.00;21.00;;;;;33.91;36.17;100981.56;144260;639;131012;-67
2021/07/23 05:49:49;;;;;;;;;18.50;18.50;;;;;33.85;35.97;100994.06;144214;598;132010;-67
2021/07/23 05:52:41;;;;;;;;;15.50;12.75;;;;;34.00;35.54;100991.31;144256;662;132008;-67
2021/07/23 05:55:33;;;;;;;;;12.50;12.50;;;;;34.08;35.00;100984.94;144221;612;132912;-67
2021/07/23 05:58:25;;;;;;;;;17.75;16.00;;;;;34.07;34.52;100986.78;144258;695;131021;-67
2021/07/23 06:01:17;;;;;;;;;19.75;18.25;;;;;33.89;35.00;100972.75;144226;594;131912;-67
2021/07/23 06:04:10;;;;;;;;;23.00;20.75;;;;;33.53;35.34;100963.47;144245;594;131020;-68
2021/07/23 06:07:02;;;;;;;;;21.00;21.00;;;;;33.44;34.94;100982.81;144220;586;132010;-69
2021/07/23 06:09:54;;;;;;;;;17.00;16.00;;;;;33.54;35.85;100981.47;144246;644;132012;-68
2021/07/23 06:12:46;;;;;;;;;16.00;15.75;;;;;33.66;35.13;100986.47;144229;598;131912;-69
2021/07/23 06:15:39;;;;;;;;;15.00;15.00;;;;;33.35;35.24;100988.34;144251;566;132008;-69
2021/07/23 06:18:31;;;;;;;;;14.25;12.50;;;;;33.37;35.90;100990.88;144223;580;132912;-69
2021/07/23 06:21:24;;;;;;;;;17.25;15.75;;;;;33.45;35.46;100990.78;144251;700;131021;-66
2021/07/23 06:24:16;;;;;;;;;14.50;14.50;;;;;33.54;35.21;100992.34;144229;611;132912;-67
2021/07/23 06:27:09;;;;;;;;;16.75;15.00;;;;;33.60;35.43;100990.78;144244;569;132013;-68
2021/07/23 06:30:01;;;;;;;;;19.75;19.00;;;;;33.66;35.47;100989.19;144220;590;132035;-67
2021/07/23 06:32:53;;;;;;;;;19.50;16.50;;;;;33.66;35.69;100989.19;144239;586;132008;-67
2021/07/23 06:35:45;;;;;;;;;15.00;14.00;;;;;33.77;35.49;100983.28;144219;596;132913;-67
2021/07/23 06:38:37;;;;;;;;;18.00;17.00;;;;;33.72;35.29;100997.44;144256;593;132008;-67
2021/07/23 06:41:29;;;;;;;;;17.50;16.50;;;;;33.71;35.11;100994.91;144222;574;132012;-68
2021/07/23 06:44:22;;;;;;;;;14.75;14.25;;;;;33.81;35.19;100998.22;144253;592;132008;-68
2021/07/23 06:47:14;;;;;;;;;18.75;17.00;;;;;33.87;35.08;101002.91;144228;583;131912;-67
2021/07/23 06:50:07;;;;;;;;;16.00;15.75;;;;;33.84;35.27;100995.09;144254;569;131021;-68
2021/07/23 06:52:59;;;;;;;;;14.75;14.25;;;;;33.89;34.89;101000.00;144227;569;131016;-67
2021/07/23 06:55:52;;;;;;;;;15.00;14.00;;;;;33.71;34.79;100998.47;144251;575;132008;-67
2021/07/23 06:58:44;;;;;;;;;15.50;15.00;;;;;33.44;34.96;100990.97;144222;573;132011;-67
2021/07/23 07:01:36;;;;;;;;;14.25;14.25;;;;;33.55;34.65;100983.16;144249;779;131020;-66
2021/07/23 07:04:28;;;;;;;;;14.50;13.75;;;;;32.79;35.89;100982.37;144226;575;132010;-67
2021/07/23 07:07:21;;;;;;;;;15.00;14.00;;;;;33.31;34.59;100981.59;144258;575;131020;-67
2021/07/23 07:10:14;;;;;;;;;19.00;15.75;;;;;33.62;34.10;100987.88;144225;583;132012;-66
2021/07/23 07:13:06;;;;;;;;;17.00;16.75;;;;;33.69;34.00;100978.75;144256;622;131021;-67
2021/07/23 07:15:58;;;;;;;;;14.75;14.25;;;;;33.57;34.31;100983.84;144220;697;131912;-66
2021/07/23 07:18:51;;;;;;;;;16.50;15.75;;;;;33.84;33.83;100980.66;144256;576;131021;-67
2021/07/23 07:21:48;;;;;;;;;15.50;15.50;;;;;33.47;33.63;100980.53;144227;593;132010;-67
2021/07/23 07:24:40;;;;;;;;;14.75;14.75;;;;;33.87;33.03;100977.53;144247;588;132012;-68
2021/07/23 07:27:32;;;;;;;;;14.50;14.50;;;;;34.12;33.08;100983.50;144226;587;131024;-68
2021/07/23 07:30:25;;;;;;;;;15.00;13.50;;;;;34.82;31.63;100978.38;144248;580;131020;-68
2021/07/23 07:33:18;;;;;;;;;15.75;14.75;;;;;34.56;31.91;100978.97;144228;620;131016;-68
2021/07/23 07:36:16;;;;;;;;;19.75;19.75;;;;;34.37;31.83;100977.72;144258;565;132012;-68
2021/07/23 07:39:09;;;;;;;;;17.25;17.00;;;;;33.79;32.25;100977.66;144221;605;132010;-67
2021/07/23 07:42:02;;;;;;;;;26.25;21.25;;;;;33.92;31.85;100975.09;144248;660;132008;-67
2021/07/23 07:44:55;;;;;;;;;16.25;16.00;;;;;33.97;32.10;100977.22;144231;573;131912;-67
2021/07/23 07:47:47;;;;;;;;;14.25;14.25;;;;;32.84;33.37;100982.69;144254;570;132008;-67
2021/07/23 07:50:39;;;;;;;;;20.50;19.75;;;;;32.31;34.40;100974.41;144220;705;132017;-66
2021/07/23 07:53:31;;;;;;;;;16.25;15.75;;;;;30.82;36.91;100980.22;144254;649;132008;-68
2021/07/23 07:56:24;;;;;;;;;18.50;17.00;;;;;32.47;33.95;100976.16;144225;590;131028;-67
2021/07/23 07:59:16;;;;;;;;;17.50;17.50;;;;;31.65;35.30;100985.56;144239;563;132008;-67
2021/07/23 08:02:18;;;;;;;;;18.25;18.00;;;;;33.48;32.41;100990.41;144220;767;132010;-69
2021/07/23 08:05:11;;;;;;;;;17.25;16.25;;;;;33.87;31.54;100983.84;144248;566;132012;-66
2021/07/23 08:08:04;;;;;;;;;21.25;18.75;;;;;33.44;32.39;100978.22;144224;634;132010;-68
2021/07/23 08:10:56;;;;;;;;;14.75;14.00;;;;;33.68;32.18;100977.09;144259;576;131020;-66
2021/07/23 08:13:49;;;;;;;;;18.50;16.75;;;;;33.49;32.51;100981.22;144226;563;132010;-68
2021/07/23 08:16:41;;;;;;;;;15.75;12.00;;;;;33.57;32.79;100972.97;144253;591;132008;-69
2021/07/23 08:19:33;;;;;;;;;14.50;14.50;;;;;33.62;32.11;100974.28;144232;621;131017;-67
2021/07/23 08:22:25;;;;;;;;;10.50;10.50;;;;;33.22;33.18;100972.63;144253;631;131020;-66
2021/07/23 08:25:18;;;;;;;;;15.50;15.25;;;;;33.55;32.83;100972.28;144224;575;131017;-67
2021/07/23 08:28:10;;;;;;;;;10.25;8.50;;;;;33.07;32.52;100971.78;144238;650;132012;-68
2021/07/23 08:31:03;;;;;;;;;18.00;14.50;;;;;33.35;32.84;100965.72;144233;564;131912;-68
2021/07/23 08:33:55;;;;;;;;;17.00;17.00;;;;;34.32;31.26;100974.72;144251;591;132009;-69
2021/07/23 08:36:47;;;;;;;;;14.25;12.25;;;;;33.90;31.60;100969.84;144221;632;132010;-68
2021/07/23 08:39:41;;;;;;;;;12.50;12.50;;;;;33.98;30.94;100966.19;144258;668;131021;-68
2021/07/23 08:42:35;;;;;;;;;13.50;13.50;;;;;33.51;32.08;100964.69;144222;578;131029;-68
2021/07/23 08:45:27;;;;;;;;;14.50;13.00;;;;;32.56;33.27;100967.75;144247;567;132008;-68
2021/07/23 08:48:20;;;;;;;;;12.75;11.75;;;;;34.45;29.92;100972.16;144227;708;132011;-67
2021/07/23 08:51:13;;;;;;;;;16.75;16.00;;;;;33.49;31.73;100973.06;144252;631;132008;-68
2021/07/23 08:54:05;;;;;;;;;10.25;10.25;;;;;33.31;31.90;100970.72;144221;608;132010;-68
2021/07/23 08:56:57;;;;;;;;;11.50;10.25;;;;;33.15;32.24;100958.09;144247;609;131021;-69
2021/07/23 08:59:49;;;;;;;;;12.25;11.25;;;;;32.62;33.15;100954.47;144228;609;131912;-68
2021/07/23 09:03:14;;;;;;;;;11.25;9.75;;;;;32.83;33.14;100949.19;144257;574;131020;-68
2021/07/23 09:06:22;;;;;;;;;11.25;11.25;;;;;32.37;34.25;100955.50;144231;616;131018;-68
2021/07/23 09:09:24;;;;;;;;;11.75;11.25;;;;;32.27;33.85;100957.59;144249;569;132012;-68
2021/07/23 09:12:16;;;;;;;;;10.50;10.50;;;;;32.54;33.75;100953.50;144215;648;132010;-68
2021/07/23 09:15:23;;;;;;;;;10.00;9.50;;;;;33.07;32.45;100950.00;144250;578;132008;-68
2021/07/23 09:18:44;;;;;;;;;8.00;8.00;;;;;33.34;31.81;100947.69;144242;596;132912;-67
2021/07/23 09:21:39;;;;;;;;;10.00;9.00;;;;;33.74;31.41;100945.53;144266;569;131020;-68
2021/07/23 09:24:57;;;;;;;;;9.75;8.75;;;;;33.06;31.03;100937.44;144228;600;132010;-67
2021/07/23 09:27:49;;;;;;;;;9.25;8.50;;;;;32.74;32.01;100939.47;144246;603;132020;-68
2021/07/23 09:30:46;;;;;;;;;8.00;8.00;;;;;32.63;33.06;100939.84;144237;614;131026;-68
2021/07/23 09:33:41;;;;;;;;;11.25;9.75;;;;;33.06;31.63;100935.56;144259;647;132008;-68
2021/07/23 09:36:33;;;;;;;;;9.00;8.00;;;;;31.52;34.29;100943.53;144234;630;132031;-70
2021/07/23 09:39:25;;;;;;;;;9.25;7.25;;;;;31.76;34.23;100949.88;144264;569;131020;-68
2021/07/23 09:42:24;;;;;;;;;7.75;7.00;;;;;31.12;35.03;100947.19;144232;564;131912;-70
2021/07/23 09:45:28;;;;;;;;;9.00;9.00;;;;;31.40;34.25;100953.06;144256;746;132012;-68
2021/07/23 09:48:20;;;;;;;;;10.75;9.25;;;;;32.66;32.70;100947.66;144240;597;132010;-70
2021/07/23 09:51:13;;;;;;;;;8.50;8.50;;;;;31.45;35.43;100944.38;144264;574;131046;-68
2021/07/23 09:54:06;;;;;;;;;9.00;9.00;;;;;32.77;32.99;100940.97;144229;614;132013;-68
2021/07/23 09:57:03;;;;;;;;;7.00;7.00;;;;;32.66;33.25;100934.91;144242;577;132012;-67
2021/07/23 10:00:10;;;;;;;;;9.00;9.00;;;;;31.87;35.08;100941.34;144239;611;131912;-64
2021/07/23 10:03:03;;;;;;;;;7.00;7.00;;;;;31.74;34.97;100932.94;144263;566;131021;-69
2021/07/23 10:06:02;;;;;;;;;9.00;8.25;;;;;32.69;33.57;100928.25;144230;583;132010;-66
2021/07/23 10:09:08;;;;;;;;;10.00;10.00;;;;;31.68;35.61;100929.06;144274;577;131008;-69
2021/07/23 10:12:02;;;;;;;;;9.75;8.00;;;;;32.08;34.63;100922.75;144227;584;131017;-69
2021/07/23 10:14:56;;;;;;;;;9.00;8.00;;;;;32.53;33.41;100912.94;144262;588;131020;-68
2021/07/23 10:17:50;;;;;;;;;8.75;8.75;;;;;32.47;33.21;100916.38;144238;572;132913;-68
2021/07/23 10:20:44;;;;;;;;;10.00;10.00;;;;;32.93;32.25;100918.19;144263;593;132012;-69
2021/07/23 10:23:40;;;;;;;;;9.25;9.25;;;;;32.81;33.08;100902.34;144224;693;132010;-68
2021/07/23 10:26:33;;;;;;;;;9.75;8.50;;;;;31.99;34.92;100921.97;144252;570;131020;-69
2021/07/23 10:29:57;;;;;;;;;9.00;9.00;;;;;31.77;34.54;100918.16;144241;581;131012;-69
2021/07/23 10:32:49;;;;;;;;;9.50;8.50;;;;;31.41;34.87;100914.03;144263;572;131020;-68
2021/07/23 10:35:41;;;;;;;;;9.00;9.00;;;;;32.12;33.25;100905.91;144229;565;132010;-68
2021/07/23 10:38:34;;;;;;;;;10.75;10.00;;;;;31.58;34.47;100908.53;144263;564;132008;-69
2021/07/23 10:41:26;;;;;;;;;14.00;10.75;;;;;32.06;34.31;100896.59;144223;609;132010;-69
2021/07/23 10:44:56;;;;;;;;;7.50;7.50;;;;;32.59;32.87;100900.47;144260;576;132008;-67
2021/07/23 10:47:55;;;;;;;;;8.00;7.00;;;;;32.08;33.80;100904.56;144242;571;131911;-69
2021/07/23 10:50:51;;;;;;;;;9.00;9.00;;;;;32.87;32.50;100888.00;144264;597;131020;-67
2021/07/23 10:53:44;;;;;;;;;9.00;8.00;;;;;33.59;31.10;100885.66;144235;564;131912;-68
2021/07/23 10:57:17;;;;;;;;;7.50;7.50;;;;;32.21;33.58;100894.00;144244;580;131020;-68
2021/07/23 11:00:10;;;;;;;;;10.00;10.00;;;;;31.92;34.51;100889.25;144234;637;131912;-69
2021/07/23 11:03:02;;;;;;;;;8.00;6.75;;;;;31.83;34.53;100888.44;144251;591;131021;-68
2021/07/23 11:05:55;;;;;;;;;7.00;7.00;;;;;31.69;34.30;100883.78;144231;657;132010;-68
2021/07/23 11:09:06;;;;;;;;;10.00;9.00;;;;;32.76;32.78;100888.47;144264;592;132026;-68
2021/07/23 11:11:58;;;;;;;;;9.75;8.75;;;;;31.26;35.85;100899.53;144234;581;132028;-67
2021/07/23 11:15:00;;;;;;;;;7.75;6.75;;;;;30.86;36.06;100900.25;144258;564;132008;-67
2021/07/23 11:18:01;;;;;;;;;9.50;9.50;;;;;31.92;34.11;100888.37;144235;702;132012;-68
2021/07/23 11:21:01;;;;;;;;;10.00;10.00;;;;;31.02;35.20;100903.97;144257;585;131020;-68
2021/07/23 11:23:54;;;;;;;;;9.25;8.00;;;;;31.06;35.62;100889.09;144224;688;131017;-67
2021/07/23 11:26:57;;;;;;;;;10.50;9.00;;;;;31.48;35.12;100881.63;144236;579;132008;-67
2021/07/23 11:29:49;;;;;;;;;7.00;7.00;;;;;31.01;35.38;100884.13;144228;584;132010;-68
2021/07/23 11:33:00;;;;;;;;;8.00;6.50;;;;;31.83;34.21;100891.16;144259;650;132008;-68
2021/07/23 11:35:53;;;;;;;;;7.00;5.00;;;;;31.85;33.94;100880.13;144235;623;132012;-69
2021/07/23 11:39:04;;;;;;;;;9.00;9.00;;;;;32.43;33.12;100877.03;144262;582;131021;-68
2021/07/23 11:42:07;;;;;;;;;7.50;6.25;;;;;32.17;33.13;100870.94;144233;634;131016;-68
2021/07/23 11:45:04;;;;;;;;;7.00;6.75;;;;;32.35;33.00;100870.63;144259;625;131998;-67
2021/07/23 11:47:57;;;;;;;;;8.75;7.50;;;;;33.01;32.16;100871.88;144239;648;132010;-68
2021/07/23 11:51:00;;;;;;;;;10.25;8.00;;;;;32.04;33.12;100859.78;144258;634;132008;-69
2021/07/23 11:53:52;;;;;;;;;9.00;7.25;;;;;32.20;33.14;100858.88;144235;593;132011;-68
2021/07/23 11:56:44;;;;;;;;;5.25;5.25;;;;;32.02;32.41;100856.44;144251;595;131020;-68
2021/07/23 11:59:42;;;;;;;;;7.25;7.25;;;;;31.69;33.31;100849.34;144233;623;132010;-68
2021/07/23 12:02:34;;;;;;;;;8.75;8.75;;;;;32.13;32.67;100853.28;144265;563;132008;-68
2021/07/23 12:05:28;;;;;;;;;8.75;8.75;;;;;31.78;32.87;100844.72;144228;615;132010;-68
2021/07/23 12:08:21;;;;;;;;;7.00;7.00;;;;;31.92;32.11;100842.25;144262;574;132012;-69
2021/07/23 12:11:15;;;;;;;;;8.00;7.50;;;;;32.69;31.52;100844.00;144233;582;132010;-66
2021/07/23 12:14:15;;;;;;;;;10.25;9.00;;;;;32.59;31.30;100837.97;144256;611;132012;-67
2021/07/23 12:17:07;;;;;;;;;7.25;6.00;;;;;33.01;29.51;100841.97;144238;587;131913;-67
2021/07/23 12:19:59;;;;;;;;;5.75;5.75;;;;;32.79;28.06;100831.00;144265;604;131020;-66
2021/07/23 12:23:04;;;;;;;;;5.25;3.75;;;;;33.32;27.39;100830.09;144232;636;132012;-68
2021/07/23 12:25:57;;;;;;;;;5.00;5.00;;;;;33.47;26.86;100827.34;144244;599;132012;-67
2021/07/23 12:29:00;;;;;;;;;5.50;5.50;;;;;32.93;27.18;100825.75;144235;596;131017;-66
2021/07/23 12:32:30;;;;;;;;;7.75;6.25;;;;;33.16;27.19;100821.06;144259;566;131992;-68
2021/07/23 12:35:28;;;;;;;;;5.00;5.00;;;;;33.56;26.44;100821.56;144224;606;132010;-67
2021/07/23 12:38:22;;;;;;;;;5.25;5.25;;;;;32.40;28.30;100822.03;144264;569;132008;-67
2021/07/23 12:41:28;;;;;;;;;8.75;7.75;;;;;32.45;27.67;100815.19;144239;699;131016;-67
2021/07/23 12:44:21;;;;;;;;;6.75;6.75;;;;;33.65;26.27;100814.13;144255;628;132013;-67
2021/07/23 12:47:24;;;;;;;;;7.00;7.00;;;;;33.45;25.27;100803.03;144242;644;131912;-67
2021/07/23 12:50:17;;;;;;;;;4.00;4.00;;;;;33.40;25.18;100803.59;144264;639;131020;-68
2021/07/23 12:53:10;;;;;;;;;7.00;7.00;;;;;33.55;24.79;100798.12;144238;585;131016;-68
2021/07/23 12:56:05;;;;;;;;;5.00;3.75;;;;;33.76;23.07;100799.16;144244;635;131020;-69
2021/07/23 12:58:57;;;;;;;;;5.00;5.00;;;;;34.15;23.47;100807.97;144239;608;131017;-67
2021/07/23 13:01:49;;;;;;;;;8.00;8.00;;;;;34.01;23.42;100801.53;144266;594;132008;-70
2021/07/23 13:04:41;;;;;;;;;5.25;5.25;;;;;34.02;23.01;100800.50;144233;566;131016;-67
2021/07/23 13:07:33;;;;;;;;;7.00;6.00;;;;;34.02;25.45;100798.63;144265;583;132009;-68
2021/07/23 13:10:27;;;;;;;;;6.00;4.25;;;;;34.01;25.85;100785.19;144233;631;131016;-67